sensor_id;sensor_type;location;lat;lon;timestamp;pressure;altitude;pressure_sealevel;temperature;humidity
51239;BME280;38154;47.548;18.828;2023-07-09T00:00:52;99214.66;;;16.69;100.00
51239;BME280;38154;47.548;18.828;2023-07-09T00:03:18;99216.37;;;16.70;100.00
51239;BME280;38154;47.548;18.828;2023-07-09T00:05:48;99222.53;;;16.71;100.00
51239;BME280;38154;47.548;18.828;2023-07-09T00:08:19;99222.59;;;16.68;100.00
51239;BME280;38154;47.548;18.828;2023-07-09T00:10:47;99227.06;;;16.63;100.00
51239;BME280;38154;47.548;18.828;2023-07-09T00:13:12;99215.72;;;16.59;100.00
51239;BME280;38154;47.548;18.828;2023-07-09T00:15:38;99219.22;;;16.58;100.00
51239;BME280;38154;47.548;18.828;2023-07-09T00:18:04;99216.63;;;16.55;100.00
51239;BME280;38154;47.548;18.828;2023-07-09T00:20:29;99216.72;;;16.50;100.00
51239;BME280;38154;47.548;18.828;2023-07-09T00:22:55;99220.28;;;16.48;100.00
51239;BME280;38154;47.548;18.828;2023-07-09T00:25:21;99218.53;;;16.47;100.00
51239;BME280;38154;47.548;18.828;2023-07-09T00:27:47;99215.97;;;16.42;100.00
51239;BME280;38154;47.548;18.828;2023-07-09T00:30:15;99220.34;;;16.42;100.00
51239;BME280;38154;47.548;18.828;2023-07-09T00:32:42;99222.16;;;16.40;100.00
51239;BME280;38154;47.548;18.828;2023-07-09T00:35:09;99216.87;;;16.40;100.00
51239;BME280;38154;47.548;18.828;2023-07-09T00:37:34;99220.38;;;16.40;100.00
51239;BME280;38154;47.548;18.828;2023-07-09T00:40:00;99216.91;;;16.38;100.00
51239;BME280;38154;47.548;18.828;2023-07-09T00:42:26;99216.06;;;16.38;100.00
51239;BME280;38154;47.548;18.828;2023-07-09T00:44:52;99222.22;;;16.33;100.00
51239;BME280;38154;47.548;18.828;2023-07-09T00:47:22;99224.88;;;16.32;100.00
51239;BME280;38154;47.548;18.828;2023-07-09T00:49:49;99213.50;;;16.31;100.00
51239;BME280;38154;47.548;18.828;2023-07-09T00:54:45;99215.25;;;16.32;100.00
51239;BME280;38154;47.548;18.828;2023-07-09T00:57:16;99215.22;;;16.34;100.00
51239;BME280;38154;47.548;18.828;2023-07-09T00:59:45;99215.28;;;16.29;100.00
51239;BME280;38154;47.548;18.828;2023-07-09T01:02:13;99214.47;;;16.26;100.00
51239;BME280;38154;47.548;18.828;2023-07-09T01:04:39;99212.75;;;16.22;100.00
51239;BME280;38154;47.548;18.828;2023-07-09T01:07:05;99217.16;;;16.21;100.00
51239;BME280;38154;47.548;18.828;2023-07-09T01:09:31;99218.06;;;16.19;100.00
51239;BME280;38154;47.548;18.828;2023-07-09T01:12:02;99219.88;;;16.15;100.00
51239;BME280;38154;47.548;18.828;2023-07-09T01:14:30;99219.97;;;16.09;100.00
51239;BME280;38154;47.548;18.828;2023-07-09T01:16:58;99220.91;;;16.03;100.00
51239;BME280;38154;47.548;18.828;2023-07-09T01:19:28;99218.34;;;15.99;100.00
51239;BME280;38154;47.548;18.828;2023-07-09T01:21:57;99211.41;;;15.94;100.00
51239;BME280;38154;47.548;18.828;2023-07-09T01:27:10;99215.87;;;15.88;100.00
51239;BME280;38154;47.548;18.828;2023-07-09T01:29:36;99213.28;;;15.85;100.00
51239;BME280;38154;47.548;18.828;2023-07-09T01:32:03;99217.69;;;15.83;100.00
51239;BME280;38154;47.548;18.828;2023-07-09T01:34:29;99216.81;;;15.82;100.00
51239;BME280;38154;47.548;18.828;2023-07-09T01:36:56;99217.75;;;15.78;100.00
51239;BME280;38154;47.548;18.828;2023-07-09T01:39:21;99219.53;;;15.76;100.00
51239;BME280;38154;47.548;18.828;2023-07-09T01:41:47;99223.09;;;15.70;100.00
51239;BME280;38154;47.548;18.828;2023-07-09T01:44:14;99226.63;;;15.66;100.00
51239;BME280;38154;47.548;18.828;2023-07-09T01:46:40;99227.53;;;15.65;100.00
51239;BME280;38154;47.548;18.828;2023-07-09T01:49:07;99228.38;;;15.66;100.00
51239;BME280;38154;47.548;18.828;2023-07-09T01:51:34;99229.25;;;15.65;100.00
51239;BME280;38154;47.548;18.828;2023-07-09T01:54:01;99234.53;;;15.65;100.00
51239;BME280;38154;47.548;18.828;2023-07-09T01:56:27;99229.28;;;15.63;100.00
51239;BME280;38154;47.548;18.828;2023-07-09T01:58:54;99230.19;;;15.62;100.00
51239;BME280;38154;47.548;18.828;2023-07-09T02:01:27;99224.97;;;15.59;100.00
51239;BME280;38154;47.548;18.828;2023-07-09T02:03:53;99230.22;;;15.57;100.00
51239;BME280;38154;47.548;18.828;2023-07-09T02:06:19;99232.00;;;15.55;100.00
51239;BME280;38154;47.548;18.828;2023-07-09T02:08:45;99226.75;;;15.55;100.00
51239;BME280;38154;47.548;18.828;2023-07-09T02:11:11;99231.13;;;15.55;100.00
51239;BME280;38154;47.548;18.828;2023-07-09T02:13:36;99228.47;;;15.56;100.00
51239;BME280;38154;47.548;18.828;2023-07-09T02:16:02;99237.28;;;15.55;100.00
51239;BME280;38154;47.548;18.828;2023-07-09T02:18:28;99239.91;;;15.55;100.00
51239;BME280;38154;47.548;18.828;2023-07-09T02:20:53;99239.87;;;15.58;100.00
51239;BME280;38154;47.548;18.828;2023-07-09T02:23:19;99237.19;;;15.60;100.00
51239;BME280;38154;47.548;18.828;2023-07-09T02:25:45;99236.31;;;15.61;100.00
51239;BME280;38154;47.548;18.828;2023-07-09T02:28:10;99237.19;;;15.62;100.00
51239;BME280;38154;47.548;18.828;2023-07-09T02:30:36;99239.78;;;15.65;100.00
51239;BME280;38154;47.548;18.828;2023-07-09T02:33:02;99244.16;;;15.66;100.00
51239;BME280;38154;47.548;18.828;2023-07-09T02:35:27;99244.97;;;15.71;100.00
51239;BME280;38154;47.548;18.828;2023-07-09T02:37:53;99244.97;;;15.71;100.00
51239;BME280;38154;47.548;18.828;2023-07-09T02:40:19;99245.87;;;15.68;100.00
51239;BME280;38154;47.548;18.828;2023-07-09T02:42:44;99243.22;;;15.70;100.00
51239;BME280;38154;47.548;18.828;2023-07-09T02:45:10;99241.47;;;15.70;100.00
51239;BME280;38154;47.548;18.828;2023-07-09T02:47:36;99250.25;;;15.69;100.00
51239;BME280;38154;47.548;18.828;2023-07-09T02:50:02;99245.00;;;15.68;100.00
51239;BME280;38154;47.548;18.828;2023-07-09T02:52:28;99248.59;;;15.62;100.00
51239;BME280;38154;47.548;18.828;2023-07-09T02:54:54;99246.00;;;15.59;100.00
51239;BME280;38154;47.548;18.828;2023-07-09T02:57:19;99249.53;;;15.55;100.00
51239;BME280;38154;47.548;18.828;2023-07-09T02:59:45;99246.09;;;15.47;100.00
51239;BME280;38154;47.548;18.828;2023-07-09T03:02:11;99247.97;;;15.40;100.00
51239;BME280;38154;47.548;18.828;2023-07-09T03:04:36;99253.28;;;15.31;100.00
51239;BME280;38154;47.548;18.828;2023-07-09T03:07:02;99258.62;;;15.21;100.00
51239;BME280;38154;47.548;18.828;2023-07-09T03:09:28;99253.44;;;15.15;100.00
51239;BME280;38154;47.548;18.828;2023-07-09T03:11:54;99253.47;;;15.12;100.00
51239;BME280;38154;47.548;18.828;2023-07-09T03:14:19;99256.94;;;15.14;100.00
51239;BME280;38154;47.548;18.828;2023-07-09T03:16:45;99265.69;;;15.15;100.00
51239;BME280;38154;47.548;18.828;2023-07-09T03:19:11;99263.06;;;15.15;100.00
51239;BME280;38154;47.548;18.828;2023-07-09T03:21:37;99273.56;;;15.18;100.00
51239;BME280;38154;47.548;18.828;2023-07-09T03:24:02;99263.03;;;15.19;100.00
51239;BME280;38154;47.548;18.828;2023-07-09T03:26:28;99280.56;;;15.20;100.00
51239;BME280;38154;47.548;18.828;2023-07-09T03:28:54;99273.53;;;15.21;100.00
51239;BME280;38154;47.548;18.828;2023-07-09T03:31:20;99274.38;;;15.23;100.00
51239;BME280;38154;47.548;18.828;2023-07-09T03:33:47;99276.09;;;15.27;100.00
51239;BME280;38154;47.548;18.828;2023-07-09T03:36:12;99272.56;;;15.31;100.00
51239;BME280;38154;47.548;18.828;2023-07-09T03:38:38;99277.75;;;15.36;100.00
51239;BME280;38154;47.548;18.828;2023-07-09T03:41:04;99279.50;;;15.40;100.00
51239;BME280;38154;47.548;18.828;2023-07-09T03:43:29;99280.28;;;15.47;100.00
51239;BME280;38154;47.548;18.828;2023-07-09T03:45:55;99278.44;;;15.53;100.00
51239;BME280;38154;47.548;18.828;2023-07-09T03:48:21;99273.16;;;15.56;100.00
51239;BME280;38154;47.548;18.828;2023-07-09T03:50:47;99270.50;;;15.61;100.00
51239;BME280;38154;47.548;18.828;2023-07-09T03:53:13;99276.56;;;15.65;100.00
51239;BME280;38154;47.548;18.828;2023-07-09T03:55:39;99275.72;;;15.63;100.00
51239;BME280;38154;47.548;18.828;2023-07-09T03:58:04;99270.47;;;15.64;100.00
51239;BME280;38154;47.548;18.828;2023-07-09T04:00:31;99273.06;;;15.67;100.00
51239;BME280;38154;47.548;18.828;2023-07-09T04:02:56;99271.25;;;15.71;100.00
51239;BME280;38154;47.548;18.828;2023-07-09T04:05:23;99264.22;;;15.71;100.00
51239;BME280;38154;47.548;18.828;2023-07-09T04:07:48;99271.22;;;15.77;100.00
51239;BME280;38154;47.548;18.828;2023-07-09T04:10:14;99271.94;;;15.90;100.00
51239;BME280;38154;47.548;18.828;2023-07-09T04:12:40;99264.69;;;16.09;100.00
51239;BME280;38154;47.548;18.828;2023-07-09T04:15:06;99269.78;;;16.21;100.00
51239;BME280;38154;47.548;18.828;2023-07-09T04:17:31;99277.47;;;16.37;100.00
51239;BME280;38154;47.548;18.828;2023-07-09T04:19:57;99274.31;;;16.70;100.00
51239;BME280;38154;47.548;18.828;2023-07-09T04:22:23;99283.28;;;17.16;100.00
51239;BME280;38154;47.548;18.828;2023-07-09T04:24:48;99281.62;;;17.59;100.00
51239;BME280;38154;47.548;18.828;2023-07-09T04:27:15;99282.66;;;17.97;100.00
51239;BME280;38154;47.548;18.828;2023-07-09T04:29:41;99277.72;;;18.61;100.00
51239;BME280;38154;47.548;18.828;2023-07-09T04:32:11;99272.81;;;18.82;99.34
51239;BME280;38154;47.548;18.828;2023-07-09T04:34:37;99283.97;;;18.96;100.00
51239;BME280;38154;47.548;18.828;2023-07-09T04:37:06;99284.72;;;19.37;95.86
51239;BME280;38154;47.548;18.828;2023-07-09T04:39:32;99279.69;;;19.59;94.04
51239;BME280;38154;47.548;18.828;2023-07-09T04:41:58;99271.41;;;19.72;96.12
51239;BME280;38154;47.548;18.828;2023-07-09T04:44:24;99278.03;;;19.88;97.60
51239;BME280;38154;47.548;18.828;2023-07-09T04:46:50;99277.63;;;20.02;96.90
51239;BME280;38154;47.548;18.828;2023-07-09T04:49:16;99277.97;;;20.21;96.29
51239;BME280;38154;47.548;18.828;2023-07-09T04:51:41;99282.28;;;20.24;96.11
51239;BME280;38154;47.548;18.828;2023-07-09T04:54:07;99277.03;;;20.22;95.77
51239;BME280;38154;47.548;18.828;2023-07-09T04:56:33;99272.78;;;20.18;96.66
51239;BME280;38154;47.548;18.828;2023-07-09T04:58:58;99288.44;;;20.24;95.25
51239;BME280;38154;47.548;18.828;2023-07-09T05:01:24;99292.34;;;20.42;96.23
51239;BME280;38154;47.548;18.828;2023-07-09T05:03:50;99283.84;;;20.59;97.05
51239;BME280;38154;47.548;18.828;2023-07-09T05:06:15;99292.91;;;20.82;96.18
51239;BME280;38154;47.548;18.828;2023-07-09T05:08:41;99295.81;;;21.01;95.65
51239;BME280;38154;47.548;18.828;2023-07-09T05:11:07;99295.28;;;21.16;91.34
51239;BME280;38154;47.548;18.828;2023-07-09T05:13:33;99297.97;;;21.41;88.52
51239;BME280;38154;47.548;18.828;2023-07-09T05:15:59;99300.50;;;21.71;84.14
51239;BME280;38154;47.548;18.828;2023-07-09T05:18:24;99302.75;;;22.07;78.39
51239;BME280;38154;47.548;18.828;2023-07-09T05:20:50;99305.84;;;22.42;76.90
51239;BME280;38154;47.548;18.828;2023-07-09T05:23:16;99297.78;;;22.67;74.77
51239;BME280;38154;47.548;18.828;2023-07-09T05:25:41;99303.19;;;22.88;71.56
51239;BME280;38154;47.548;18.828;2023-07-09T05:28:07;99298.72;;;23.10;63.22
51239;BME280;38154;47.548;18.828;2023-07-09T05:30:33;99310.09;;;23.57;61.73
51239;BME280;38154;47.548;18.828;2023-07-09T05:32:58;99309.94;;;24.01;60.37
51239;BME280;38154;47.548;18.828;2023-07-09T05:35:25;99308.78;;;24.06;61.65
51239;BME280;38154;47.548;18.828;2023-07-09T05:37:54;99305.13;;;24.09;61.74
51239;BME280;38154;47.548;18.828;2023-07-09T05:40:20;99310.03;;;24.18;62.63
51239;BME280;38154;47.548;18.828;2023-07-09T05:42:47;99308.53;;;24.32;60.04
51239;BME280;38154;47.548;18.828;2023-07-09T05:45:14;99310.19;;;24.34;61.85
51239;BME280;38154;47.548;18.828;2023-07-09T05:47:40;99309.25;;;24.35;59.16
51239;BME280;38154;47.548;18.828;2023-07-09T05:50:05;99310.47;;;24.47;56.16
51239;BME280;38154;47.548;18.828;2023-07-09T05:52:31;99317.03;;;24.78;57.48
51239;BME280;38154;47.548;18.828;2023-07-09T05:54:57;99310.75;;;25.15;55.70
51239;BME280;38154;47.548;18.828;2023-07-09T05:57:24;99317.13;;;25.30;54.32
51239;BME280;38154;47.548;18.828;2023-07-09T05:59:50;99319.06;;;25.46;56.35
51239;BME280;38154;47.548;18.828;2023-07-09T06:02:16;99328.22;;;25.58;51.19
51239;BME280;38154;47.548;18.828;2023-07-09T06:04:43;99321.13;;;25.91;51.41
51239;BME280;38154;47.548;18.828;2023-07-09T06:07:09;99327.47;;;25.89;50.45
51239;BME280;38154;47.548;18.828;2023-07-09T06:09:35;99329.84;;;25.95;50.99
51239;BME280;38154;47.548;18.828;2023-07-09T06:12:02;99326.28;;;26.12;49.48
51239;BME280;38154;47.548;18.828;2023-07-09T06:14:28;99327.53;;;26.38;51.06
51239;BME280;38154;47.548;18.828;2023-07-09T06:16:53;99324.75;;;26.73;49.96
51239;BME280;38154;47.548;18.828;2023-07-09T06:19:19;99330.25;;;27.02;47.93
51239;BME280;38154;47.548;18.828;2023-07-09T06:21:45;99333.44;;;28.00;45.31
51239;BME280;38154;47.548;18.828;2023-07-09T06:24:11;99341.19;;;29.84;40.87
51239;BME280;38154;47.548;18.828;2023-07-09T06:26:36;99342.41;;;31.05;39.39
51239;BME280;38154;47.548;18.828;2023-07-09T06:29:02;99344.84;;;32.94;35.19
51239;BME280;38154;47.548;18.828;2023-07-09T06:31:28;99349.16;;;34.24;32.85
51239;BME280;38154;47.548;18.828;2023-07-09T06:33:54;99352.34;;;34.18;32.95
51239;BME280;38154;47.548;18.828;2023-07-09T06:36:19;99349.03;;;34.35;32.69
51239;BME280;38154;47.548;18.828;2023-07-09T06:38:45;99353.91;;;36.56;31.07
51239;BME280;38154;47.548;18.828;2023-07-09T06:41:11;99355.25;;;37.88;26.85
51239;BME280;38154;47.548;18.828;2023-07-09T06:43:37;99349.75;;;37.80;26.92
51239;BME280;38154;47.548;18.828;2023-07-09T06:46:06;99351.16;;;38.10;26.75
51239;BME280;38154;47.548;18.828;2023-07-09T06:48:32;99358.19;;;38.98;25.05
51239;BME280;38154;47.548;18.828;2023-07-09T06:50:58;99357.78;;;40.10;24.05
51239;BME280;38154;47.548;18.828;2023-07-09T06:53:25;99365.88;;;40.90;24.15
51239;BME280;38154;47.548;18.828;2023-07-09T06:55:51;99369.00;;;42.33;21.36
51239;BME280;38154;47.548;18.828;2023-07-09T06:58:19;99363.81;;;42.53;21.18
51239;BME280;38154;47.548;18.828;2023-07-09T07:00:45;99366.25;;;42.48;20.65
51239;BME280;38154;47.548;18.828;2023-07-09T07:03:11;99370.09;;;42.98;20.04
51239;BME280;38154;47.548;18.828;2023-07-09T07:05:37;99371.62;;;43.44;19.85
51239;BME280;38154;47.548;18.828;2023-07-09T07:08:02;99368.25;;;43.42;20.01
51239;BME280;38154;47.548;18.828;2023-07-09T07:10:29;99370.09;;;43.56;19.46
51239;BME280;38154;47.548;18.828;2023-07-09T07:12:55;99368.97;;;42.92;19.90
51239;BME280;38154;47.548;18.828;2023-07-09T07:15:20;99355.81;;;41.60;21.10
51239;BME280;38154;47.548;18.828;2023-07-09T07:17:46;99357.88;;;41.96;20.25
51239;BME280;38154;47.548;18.828;2023-07-09T07:20:12;99362.50;;;43.00;20.48
51239;BME280;38154;47.548;18.828;2023-07-09T07:22:38;99364.34;;;43.51;19.33
51239;BME280;38154;47.548;18.828;2023-07-09T07:25:05;99367.59;;;43.83;18.72
51239;BME280;38154;47.548;18.828;2023-07-09T07:27:31;99370.50;;;44.09;18.67
51239;BME280;38154;47.548;18.828;2023-07-09T07:29:56;99362.78;;;43.91;18.56
51239;BME280;38154;47.548;18.828;2023-07-09T07:32:23;99363.31;;;44.37;18.56
51239;BME280;38154;47.548;18.828;2023-07-09T07:34:49;99365.56;;;43.98;18.96
51239;BME280;38154;47.548;18.828;2023-07-09T07:37:15;99366.38;;;44.20;18.72
51239;BME280;38154;47.548;18.828;2023-07-09T07:39:41;99365.81;;;44.03;19.04
51239;BME280;38154;47.548;18.828;2023-07-09T07:42:07;99369.59;;;45.27;17.55
51239;BME280;38154;47.548;18.828;2023-07-09T07:44:33;99365.41;;;45.71;17.20
51239;BME280;38154;47.548;18.828;2023-07-09T07:46:58;99367.03;;;45.19;17.44
51239;BME280;38154;47.548;18.828;2023-07-09T07:49:24;99367.53;;;44.81;18.30
51239;BME280;38154;47.548;18.828;2023-07-09T07:51:49;99362.16;;;44.59;18.49
51239;BME280;38154;47.548;18.828;2023-07-09T07:54:15;99363.28;;;44.02;18.45
51239;BME280;38154;47.548;18.828;2023-07-09T07:56:43;99355.84;;;44.31;18.77
51239;BME280;38154;47.548;18.828;2023-07-09T07:59:09;99360.09;;;45.36;16.53
51239;BME280;38154;47.548;18.828;2023-07-09T08:01:34;99364.75;;;44.33;17.60
51239;BME280;38154;47.548;18.828;2023-07-09T08:04:01;99365.31;;;45.05;17.48
51239;BME280;38154;47.548;18.828;2023-07-09T08:06:28;99373.69;;;45.85;16.83
51239;BME280;38154;47.548;18.828;2023-07-09T08:08:53;99371.75;;;44.70;17.71
51239;BME280;38154;47.548;18.828;2023-07-09T08:11:19;99360.44;;;45.07;17.12
51239;BME280;38154;47.548;18.828;2023-07-09T08:13:45;99367.47;;;45.23;16.83
51239;BME280;38154;47.548;18.828;2023-07-09T08:16:11;99364.41;;;44.49;18.13
51239;BME280;38154;47.548;18.828;2023-07-09T08:18:39;99359.41;;;43.89;18.24
51239;BME280;38154;47.548;18.828;2023-07-09T08:21:05;99359.66;;;44.30;18.12
51239;BME280;38154;47.548;18.828;2023-07-09T08:23:31;99363.28;;;44.02;18.57
51239;BME280;38154;47.548;18.828;2023-07-09T08:25:57;99361.25;;;44.52;17.58
51239;BME280;38154;47.548;18.828;2023-07-09T08:28:23;99364.06;;;43.96;18.55
51239;BME280;38154;47.548;18.828;2023-07-09T08:30:51;99363.22;;;45.33;18.64
51239;BME280;38154;47.548;18.828;2023-07-09T08:33:17;99355.50;;;44.40;17.74
51239;BME280;38154;47.548;18.828;2023-07-09T08:35:43;99358.84;;;43.51;18.49
51239;BME280;38154;47.548;18.828;2023-07-09T08:38:08;99359.06;;;43.34;19.19
51239;BME280;38154;47.548;18.828;2023-07-09T08:40:38;99368.41;;;44.88;17.54
51239;BME280;38154;47.548;18.828;2023-07-09T08:43:16;99358.16;;;45.30;16.94
51239;BME280;38154;47.548;18.828;2023-07-09T08:45:50;99356.59;;;44.53;16.41
51239;BME280;38154;47.548;18.828;2023-07-09T08:48:27;99353.75;;;45.56;16.30
51239;BME280;38154;47.548;18.828;2023-07-09T08:50:56;99357.34;;;45.97;15.39
51239;BME280;38154;47.548;18.828;2023-07-09T08:56:21;99354.16;;;46.00;14.56
51239;BME280;38154;47.548;18.828;2023-07-09T08:58:47;99365.53;;;46.43;15.40
51239;BME280;38154;47.548;18.828;2023-07-09T09:01:17;99358.22;;;45.84;15.31
51239;BME280;38154;47.548;18.828;2023-07-09T09:03:51;99344.13;;;44.50;17.11
51239;BME280;38154;47.548;18.828;2023-07-09T09:06:20;99349.59;;;44.43;17.02
51239;BME280;38154;47.548;18.828;2023-07-09T09:14:16;99348.97;;;44.96;16.59
51239;BME280;38154;47.548;18.828;2023-07-09T09:16:43;99347.78;;;44.64;16.81
51239;BME280;38154;47.548;18.828;2023-07-09T09:19:15;99347.78;;;44.57;16.99
51239;BME280;38154;47.548;18.828;2023-07-09T09:21:43;99347.03;;;43.79;17.15
51239;BME280;38154;47.548;18.828;2023-07-09T09:24:17;99351.38;;;44.23;16.83
51239;BME280;38154;47.548;18.828;2023-07-09T09:26:44;99346.16;;;44.35;17.05
51239;BME280;38154;47.548;18.828;2023-07-09T09:29:14;99350.78;;;44.69;16.22
51239;BME280;38154;47.548;18.828;2023-07-09T09:31:40;99350.12;;;44.60;17.66
51239;BME280;38154;47.548;18.828;2023-07-09T09:34:16;99351.34;;;45.13;16.93
51239;BME280;38154;47.548;18.828;2023-07-09T09:36:42;99353.47;;;44.56;16.95
51239;BME280;38154;47.548;18.828;2023-07-09T09:39:08;99352.47;;;44.63;16.06
51239;BME280;38154;47.548;18.828;2023-07-09T09:41:35;99352.66;;;43.70;17.56
51239;BME280;38154;47.548;18.828;2023-07-09T09:44:01;99347.94;;;43.86;16.56
51239;BME280;38154;47.548;18.828;2023-07-09T09:46:27;99337.25;;;43.26;17.96
51239;BME280;38154;47.548;18.828;2023-07-09T09:48:54;99337.50;;;44.09;16.62
51239;BME280;38154;47.548;18.828;2023-07-09T09:51:20;99337.47;;;44.03;17.88
51239;BME280;38154;47.548;18.828;2023-07-09T09:53:49;99337.47;;;44.38;17.69
51239;BME280;38154;47.548;18.828;2023-07-09T09:56:27;99343.25;;;44.50;16.96
51239;BME280;38154;47.548;18.828;2023-07-09T09:58:54;99332.63;;;44.33;16.17
51239;BME280;38154;47.548;18.828;2023-07-09T10:01:24;99336.91;;;44.14;17.45
51239;BME280;38154;47.548;18.828;2023-07-09T10:03:51;99336.59;;;43.74;17.59
51239;BME280;38154;47.548;18.828;2023-07-09T10:06:19;99328.81;;;44.06;18.08
51239;BME280;38154;47.548;18.828;2023-07-09T10:13:46;99333.69;;;44.39;16.85
51239;BME280;38154;47.548;18.828;2023-07-09T10:18:56;99325.06;;;43.57;18.12
51239;BME280;38154;47.548;18.828;2023-07-09T10:31:21;99321.75;;;43.18;18.03
51239;BME280;38154;47.548;18.828;2023-07-09T10:34:13;99317.94;;;41.49;18.29
51239;BME280;38154;47.548;18.828;2023-07-09T10:39:32;99311.53;;;40.87;19.61
51239;BME280;38154;47.548;18.828;2023-07-09T10:41:59;99316.78;;;41.96;18.42
51239;BME280;38154;47.548;18.828;2023-07-09T10:44:35;99324.75;;;42.87;16.82
51239;BME280;38154;47.548;18.828;2023-07-09T10:47:04;99322.87;;;43.24;16.70
51239;BME280;38154;47.548;18.828;2023-07-09T10:49:31;99316.41;;;43.82;15.88
51239;BME280;38154;47.548;18.828;2023-07-09T10:52:04;99317.78;;;42.85;16.43
51239;BME280;38154;47.548;18.828;2023-07-09T10:57:31;99312.41;;;43.56;16.42
51239;BME280;38154;47.548;18.828;2023-07-09T11:00:01;99314.84;;;42.86;17.31
51239;BME280;38154;47.548;18.828;2023-07-09T11:02:29;99307.56;;;42.42;17.15
51239;BME280;38154;47.548;18.828;2023-07-09T11:04:56;99309.81;;;42.23;16.95
51239;BME280;38154;47.548;18.828;2023-07-09T11:09:51;99297.91;;;39.09;18.23
51239;BME280;38154;47.548;18.828;2023-07-09T11:12:31;99298.03;;;39.00;19.06
51239;BME280;38154;47.548;18.828;2023-07-09T11:15:09;99299.25;;;39.79;17.36
51239;BME280;38154;47.548;18.828;2023-07-09T11:17:36;99286.75;;;37.12;21.69
51239;BME280;38154;47.548;18.828;2023-07-09T11:20:14;99280.19;;;36.42;25.03
51239;BME280;38154;47.548;18.828;2023-07-09T11:22:41;99280.31;;;37.31;22.97
51239;BME280;38154;47.548;18.828;2023-07-09T11:25:11;99285.41;;;38.05;21.04
51239;BME280;38154;47.548;18.828;2023-07-09T11:27:53;99284.56;;;38.82;20.28
51239;BME280;38154;47.548;18.828;2023-07-09T11:30:24;99288.66;;;39.02;20.24
51239;BME280;38154;47.548;18.828;2023-07-09T11:32:57;99282.47;;;38.67;18.54
51239;BME280;38154;47.548;18.828;2023-07-09T11:35:25;99285.19;;;38.67;19.47
51239;BME280;38154;47.548;18.828;2023-07-09T11:37:51;99285.37;;;38.23;19.59
51239;BME280;38154;47.548;18.828;2023-07-09T11:40:18;99280.94;;;38.22;19.91
51239;BME280;38154;47.548;18.828;2023-07-09T11:42:54;99277.28;;;37.79;20.51
51239;BME280;38154;47.548;18.828;2023-07-09T11:45:23;99269.94;;;37.53;21.32
51239;BME280;38154;47.548;18.828;2023-07-09T11:50:30;99267.97;;;35.23;23.70
51239;BME280;38154;47.548;18.828;2023-07-09T11:55:41;99261.28;;;35.84;25.63
51239;BME280;38154;47.548;18.828;2023-07-09T11:58:08;99257.69;;;35.94;21.09
51239;BME280;38154;47.548;18.828;2023-07-09T12:00:38;99262.94;;;36.05;20.61
51239;BME280;38154;47.548;18.828;2023-07-09T12:03:05;99258.53;;;35.94;21.52
51239;BME280;38154;47.548;18.828;2023-07-09T12:05:31;99262.72;;;36.16;21.68
51239;BME280;38154;47.548;18.828;2023-07-09T12:07:57;99261.87;;;36.26;20.62
51239;BME280;38154;47.548;18.828;2023-07-09T12:10:24;99252.75;;;36.17;20.37
51239;BME280;38154;47.548;18.828;2023-07-09T12:12:55;99250.84;;;36.27;20.89
51239;BME280;38154;47.548;18.828;2023-07-09T12:15:22;99244.53;;;35.42;23.25
51239;BME280;38154;47.548;18.828;2023-07-09T12:17:56;99242.78;;;34.53;23.43
51239;BME280;38154;47.548;18.828;2023-07-09T12:20:21;99240.19;;;34.01;25.21
51239;BME280;38154;47.548;18.828;2023-07-09T12:22:47;99232.13;;;34.71;26.40
51239;BME280;38154;47.548;18.828;2023-07-09T12:25:23;99234.41;;;35.24;24.78
51239;BME280;38154;47.548;18.828;2023-07-09T12:27:49;99241.19;;;35.58;23.80
51239;BME280;38154;47.548;18.828;2023-07-09T12:30:15;99230.13;;;35.41;23.13
51239;BME280;38154;47.548;18.828;2023-07-09T12:32:48;99228.00;;;35.35;22.36
51239;BME280;38154;47.548;18.828;2023-07-09T12:35:15;99235.47;;;35.61;22.91
51239;BME280;38154;47.548;18.828;2023-07-09T12:37:42;99233.97;;;35.96;24.61
51239;BME280;38154;47.548;18.828;2023-07-09T12:40:16;99226.06;;;35.65;22.51
51239;BME280;38154;47.548;18.828;2023-07-09T12:42:43;99223.56;;;35.34;24.40
51239;BME280;38154;47.548;18.828;2023-07-09T12:45:16;99223.25;;;35.18;22.59
51239;BME280;38154;47.548;18.828;2023-07-09T12:47:43;99225.56;;;35.12;22.31
51239;BME280;38154;47.548;18.828;2023-07-09T12:52:47;99224.44;;;34.86;23.21
51239;BME280;38154;47.548;18.828;2023-07-09T12:55:23;99210.41;;;34.51;23.67
51239;BME280;38154;47.548;18.828;2023-07-09T12:57:51;99211.16;;;34.63;23.42
51239;BME280;38154;47.548;18.828;2023-07-09T13:00:17;99213.53;;;34.47;23.97
51239;BME280;38154;47.548;18.828;2023-07-09T13:02:44;99213.00;;;34.53;24.32
51239;BME280;38154;47.548;18.828;2023-07-09T13:05:17;99211.25;;;34.42;24.70
51239;BME280;38154;47.548;18.828;2023-07-09T13:07:45;99204.66;;;34.25;23.29
51239;BME280;38154;47.548;18.828;2023-07-09T13:10:16;99203.09;;;33.82;23.67
51239;BME280;38154;47.548;18.828;2023-07-09T13:12:44;99205.50;;;33.75;23.64
51239;BME280;38154;47.548;18.828;2023-07-09T13:18:07;99198.63;;;33.71;24.72
51239;BME280;38154;47.548;18.828;2023-07-09T13:20:37;99196.03;;;33.70;23.91
51239;BME280;38154;47.548;18.828;2023-07-09T13:23:04;99195.75;;;33.42;25.22
51239;BME280;38154;47.548;18.828;2023-07-09T13:25:33;99200.56;;;33.17;25.14
51239;BME280;38154;47.548;18.828;2023-07-09T13:27:58;99201.91;;;32.58;25.57
51239;BME280;38154;47.548;18.828;2023-07-09T13:30:24;99190.59;;;32.64;24.53
51239;BME280;38154;47.548;18.828;2023-07-09T13:32:50;99187.56;;;32.90;25.37
51239;BME280;38154;47.548;18.828;2023-07-09T13:35:17;99181.47;;;32.98;23.59